sensor_id;sensor_type;location;lat;lon;timestamp;P1;durP1;ratioP1;P2;durP2;ratioP2
68273;SDS011;55104;47.356;19.448;2022-07-22T00:01:14;6.13;;;1.95;;
68273;SDS011;55104;47.356;19.448;2022-07-22T00:04:16;5.43;;;1.70;;
68273;SDS011;55104;47.356;19.448;2022-07-22T00:07:18;6.80;;;1.93;;
68273;SDS011;55104;47.356;19.448;2022-07-22T00:10:20;8.77;;;2.03;;
68273;SDS011;55104;47.356;19.448;2022-07-22T00:13:22;7.32;;;1.50;;
68273;SDS011;55104;47.356;19.448;2022-07-22T00:16:24;5.18;;;1.80;;
68273;SDS011;55104;47.356;19.448;2022-07-22T00:19:26;5.07;;;1.73;;
68273;SDS011;55104;47.356;19.448;2022-07-22T00:22:28;6.37;;;1.77;;
68273;SDS011;55104;47.356;19.448;2022-07-22T00:25:30;5.53;;;1.53;;
68273;SDS011;55104;47.356;19.448;2022-07-22T00:28:32;5.55;;;1.50;;
68273;SDS011;55104;47.356;19.448;2022-07-22T00:31:35;7.50;;;1.85;;
68273;SDS011;55104;47.356;19.448;2022-07-22T00:34:37;6.75;;;1.77;;
68273;SDS011;55104;47.356;19.448;2022-07-22T00:37:39;5.13;;;1.50;;
68273;SDS011;55104;47.356;19.448;2022-07-22T00:40:41;5.07;;;1.50;;
68273;SDS011;55104;47.356;19.448;2022-07-22T00:47:09;5.35;;;1.60;;
68273;SDS011;55104;47.356;19.448;2022-07-22T00:50:11;8.38;;;1.80;;
68273;SDS011;55104;47.356;19.448;2022-07-22T00:53:16;5.93;;;1.70;;
68273;SDS011;55104;47.356;19.448;2022-07-22T00:56:18;6.27;;;1.70;;
68273;SDS011;55104;47.356;19.448;2022-07-22T00:59:21;5.32;;;1.35;;
68273;SDS011;55104;47.356;19.448;2022-07-22T01:02:24;5.00;;;1.60;;
68273;SDS011;55104;47.356;19.448;2022-07-22T01:05:26;4.78;;;1.60;;
68273;SDS011;55104;47.356;19.448;2022-07-22T01:08:28;7.87;;;1.77;;
68273;SDS011;55104;47.356;19.448;2022-07-22T01:11:31;5.33;;;1.60;;
68273;SDS011;55104;47.356;19.448;2022-07-22T01:14:33;4.78;;;1.42;;
68273;SDS011;55104;47.356;19.448;2022-07-22T01:17:35;6.75;;;1.52;;
68273;SDS011;55104;47.356;19.448;2022-07-22T01:20:38;4.57;;;1.48;;
68273;SDS011;55104;47.356;19.448;2022-07-22T01:23:42;8.37;;;1.70;;
68273;SDS011;55104;47.356;19.448;2022-07-22T01:26:44;5.90;;;1.53;;
68273;SDS011;55104;47.356;19.448;2022-07-22T01:29:46;5.40;;;1.23;;
68273;SDS011;55104;47.356;19.448;2022-07-22T01:32:48;4.88;;;1.48;;
68273;SDS011;55104;47.356;19.448;2022-07-22T01:35:51;5.00;;;1.42;;
68273;SDS011;55104;47.356;19.448;2022-07-22T01:38:53;5.13;;;1.30;;
68273;SDS011;55104;47.356;19.448;2022-07-22T01:41:56;4.17;;;1.27;;
68273;SDS011;55104;47.356;19.448;2022-07-22T01:44:59;4.97;;;1.60;;
68273;SDS011;55104;47.356;19.448;2022-07-22T01:48:04;4.43;;;1.38;;
68273;SDS011;55104;47.356;19.448;2022-07-22T01:51:06;4.90;;;1.40;;
68273;SDS011;55104;47.356;19.448;2022-07-22T01:54:10;8.47;;;1.77;;
68273;SDS011;55104;47.356;19.448;2022-07-22T01:57:12;5.63;;;1.40;;
68273;SDS011;55104;47.356;19.448;2022-07-22T02:00:20;5.35;;;1.50;;
68273;SDS011;55104;47.356;19.448;2022-07-22T02:03:22;5.40;;;1.48;;
68273;SDS011;55104;47.356;19.448;2022-07-22T02:06:24;5.97;;;1.30;;
68273;SDS011;55104;47.356;19.448;2022-07-22T02:09:30;6.50;;;1.40;;
68273;SDS011;55104;47.356;19.448;2022-07-22T02:12:32;4.77;;;1.47;;
68273;SDS011;55104;47.356;19.448;2022-07-22T02:15:34;8.52;;;1.65;;
68273;SDS011;55104;47.356;19.448;2022-07-22T02:18:36;9.52;;;1.58;;
68273;SDS011;55104;47.356;19.448;2022-07-22T02:21:38;6.13;;;1.60;;
68273;SDS011;55104;47.356;19.448;2022-07-22T02:24:42;7.37;;;1.77;;
68273;SDS011;55104;47.356;19.448;2022-07-22T02:27:49;5.10;;;1.57;;
68273;SDS011;55104;47.356;19.448;2022-07-22T02:30:51;5.55;;;1.52;;
68273;SDS011;55104;47.356;19.448;2022-07-22T02:33:53;6.68;;;1.48;;
68273;SDS011;55104;47.356;19.448;2022-07-22T02:37:00;6.70;;;1.98;;
68273;SDS011;55104;47.356;19.448;2022-07-22T02:40:03;5.80;;;1.63;;
68273;SDS011;55104;47.356;19.448;2022-07-22T02:43:06;6.33;;;1.60;;
68273;SDS011;55104;47.356;19.448;2022-07-22T02:46:08;6.38;;;1.60;;
68273;SDS011;55104;47.356;19.448;2022-07-22T02:49:11;8.25;;;1.70;;
68273;SDS011;55104;47.356;19.448;2022-07-22T02:52:13;6.13;;;1.65;;
68273;SDS011;55104;47.356;19.448;2022-07-22T02:55:15;4.63;;;1.40;;
68273;SDS011;55104;47.356;19.448;2022-07-22T02:58:18;8.77;;;1.90;;
68273;SDS011;55104;47.356;19.448;2022-07-22T03:01:20;7.68;;;1.80;;
68273;SDS011;55104;47.356;19.448;2022-07-22T03:04:28;8.48;;;1.90;;
68273;SDS011;55104;47.356;19.448;2022-07-22T03:07:30;7.80;;;2.40;;
68273;SDS011;55104;47.356;19.448;2022-07-22T03:10:33;6.70;;;1.93;;
68273;SDS011;55104;47.356;19.448;2022-07-22T03:13:36;6.90;;;1.90;;
68273;SDS011;55104;47.356;19.448;2022-07-22T03:16:38;6.32;;;1.73;;
68273;SDS011;55104;47.356;19.448;2022-07-22T03:19:40;4.85;;;1.60;;
68273;SDS011;55104;47.356;19.448;2022-07-22T03:22:42;7.50;;;1.70;;
68273;SDS011;55104;47.356;19.448;2022-07-22T03:25:44;8.97;;;2.33;;
68273;SDS011;55104;47.356;19.448;2022-07-22T03:28:47;9.17;;;2.03;;
68273;SDS011;55104;47.356;19.448;2022-07-22T03:31:49;6.72;;;1.95;;
68273;SDS011;55104;47.356;19.448;2022-07-22T03:35:01;6.47;;;1.55;;
68273;SDS011;55104;47.356;19.448;2022-07-22T03:38:08;7.88;;;2.10;;
68273;SDS011;55104;47.356;19.448;2022-07-22T03:41:11;6.27;;;1.50;;
68273;SDS011;55104;47.356;19.448;2022-07-22T03:44:14;5.97;;;1.57;;
68273;SDS011;55104;47.356;19.448;2022-07-22T03:47:17;8.52;;;1.45;;
68273;SDS011;55104;47.356;19.448;2022-07-22T03:50:21;5.53;;;1.60;;
68273;SDS011;55104;47.356;19.448;2022-07-22T03:53:23;8.00;;;1.65;;
68273;SDS011;55104;47.356;19.448;2022-07-22T03:56:25;6.77;;;1.33;;
68273;SDS011;55104;47.356;19.448;2022-07-22T03:59:27;5.03;;;1.30;;
68273;SDS011;55104;47.356;19.448;2022-07-22T04:02:29;5.60;;;1.42;;
68273;SDS011;55104;47.356;19.448;2022-07-22T04:05:32;5.18;;;1.55;;
68273;SDS011;55104;47.356;19.448;2022-07-22T04:08:34;10.73;;;1.30;;
68273;SDS011;55104;47.356;19.448;2022-07-22T04:11:37;6.33;;;1.70;;
68273;SDS011;55104;47.356;19.448;2022-07-22T04:14:39;6.13;;;1.47;;
68273;SDS011;55104;47.356;19.448;2022-07-22T04:17:41;5.40;;;1.48;;
68273;SDS011;55104;47.356;19.448;2022-07-22T04:20:44;5.82;;;1.30;;
68273;SDS011;55104;47.356;19.448;2022-07-22T04:24:01;6.20;;;1.35;;
68273;SDS011;55104;47.356;19.448;2022-07-22T04:27:05;11.90;;;1.87;;
68273;SDS011;55104;47.356;19.448;2022-07-22T04:30:09;5.53;;;1.27;;
68273;SDS011;55104;47.356;19.448;2022-07-22T04:33:13;6.10;;;1.50;;
68273;SDS011;55104;47.356;19.448;2022-07-22T04:36:16;4.38;;;1.30;;
68273;SDS011;55104;47.356;19.448;2022-07-22T04:39:19;5.25;;;1.40;;
68273;SDS011;55104;47.356;19.448;2022-07-22T04:42:29;4.37;;;1.27;;
68273;SDS011;55104;47.356;19.448;2022-07-22T04:45:31;6.67;;;1.60;;
68273;SDS011;55104;47.356;19.448;2022-07-22T04:48:34;4.72;;;1.30;;
68273;SDS011;55104;47.356;19.448;2022-07-22T04:51:36;5.57;;;1.70;;
68273;SDS011;55104;47.356;19.448;2022-07-22T04:54:42;5.95;;;1.30;;
68273;SDS011;55104;47.356;19.448;2022-07-22T04:57:44;6.83;;;1.70;;
68273;SDS011;55104;47.356;19.448;2022-07-22T05:00:47;5.43;;;1.50;;
68273;SDS011;55104;47.356;19.448;2022-07-22T05:03:50;4.38;;;1.35;;
68273;SDS011;55104;47.356;19.448;2022-07-22T05:06:53;4.72;;;1.23;;
68273;SDS011;55104;47.356;19.448;2022-07-22T05:09:56;3.80;;;1.10;;
68273;SDS011;55104;47.356;19.448;2022-07-22T05:12:58;4.60;;;1.27;;
68273;SDS011;55104;47.356;19.448;2022-07-22T05:16:04;5.40;;;1.50;;
68273;SDS011;55104;47.356;19.448;2022-07-22T05:19:09;6.88;;;1.50;;
68273;SDS011;55104;47.356;19.448;2022-07-22T05:22:13;5.82;;;1.50;;
68273;SDS011;55104;47.356;19.448;2022-07-22T05:25:15;7.43;;;1.23;;
68273;SDS011;55104;47.356;19.448;2022-07-22T05:28:18;5.07;;;1.40;;
68273;SDS011;55104;47.356;19.448;2022-07-22T05:31:22;5.17;;;1.37;;
68273;SDS011;55104;47.356;19.448;2022-07-22T05:34:24;4.30;;;1.13;;
68273;SDS011;55104;47.356;19.448;2022-07-22T05:37:28;7.60;;;1.40;;
68273;SDS011;55104;47.356;19.448;2022-07-22T05:40:31;8.73;;;1.70;;
68273;SDS011;55104;47.356;19.448;2022-07-22T05:43:34;6.27;;;1.57;;
68273;SDS011;55104;47.356;19.448;2022-07-22T05:46:38;3.93;;;1.50;;
68273;SDS011;55104;47.356;19.448;2022-07-22T05:49:41;4.32;;;1.50;;
68273;SDS011;55104;47.356;19.448;2022-07-22T05:52:46;4.90;;;1.60;;
68273;SDS011;55104;47.356;19.448;2022-07-22T05:55:48;5.53;;;1.70;;
68273;SDS011;55104;47.356;19.448;2022-07-22T05:58:50;6.43;;;1.87;;
68273;SDS011;55104;47.356;19.448;2022-07-22T06:01:53;6.73;;;2.00;;
68273;SDS011;55104;47.356;19.448;2022-07-22T06:05:12;7.57;;;1.60;;
68273;SDS011;55104;47.356;19.448;2022-07-22T06:08:35;5.07;;;1.50;;
68273;SDS011;55104;47.356;19.448;2022-07-22T06:11:38;5.18;;;1.48;;
68273;SDS011;55104;47.356;19.448;2022-07-22T06:14:40;6.90;;;2.00;;
68273;SDS011;55104;47.356;19.448;2022-07-22T06:17:42;4.93;;;1.40;;
68273;SDS011;55104;47.356;19.448;2022-07-22T06:20:44;5.55;;;1.55;;
68273;SDS011;55104;47.356;19.448;2022-07-22T06:23:47;5.47;;;1.30;;
68273;SDS011;55104;47.356;19.448;2022-07-22T06:26:51;5.38;;;1.50;;
68273;SDS011;55104;47.356;19.448;2022-07-22T06:29:53;4.47;;;1.27;;
68273;SDS011;55104;47.356;19.448;2022-07-22T06:32:56;5.40;;;1.87;;
68273;SDS011;55104;47.356;19.448;2022-07-22T06:35:58;4.50;;;1.58;;
68273;SDS011;55104;47.356;19.448;2022-07-22T06:39:03;5.53;;;1.50;;
68273;SDS011;55104;47.356;19.448;2022-07-22T06:42:26;6.28;;;1.60;;
68273;SDS011;55104;47.356;19.448;2022-07-22T06:45:47;5.37;;;1.80;;
68273;SDS011;55104;47.356;19.448;2022-07-22T06:49:06;4.80;;;1.43;;
68273;SDS011;55104;47.356;19.448;2022-07-22T06:52:14;4.88;;;1.40;;
68273;SDS011;55104;47.356;19.448;2022-07-22T06:55:16;5.72;;;1.70;;
68273;SDS011;55104;47.356;19.448;2022-07-22T06:58:30;6.47;;;1.35;;
68273;SDS011;55104;47.356;19.448;2022-07-22T07:01:32;8.80;;;1.70;;
68273;SDS011;55104;47.356;19.448;2022-07-22T07:04:35;5.03;;;1.40;;
68273;SDS011;55104;47.356;19.448;2022-07-22T07:07:37;4.80;;;1.73;;
68273;SDS011;55104;47.356;19.448;2022-07-22T07:10:39;5.15;;;1.60;;
68273;SDS011;55104;47.356;19.448;2022-07-22T07:13:46;5.45;;;1.70;;
68273;SDS011;55104;47.356;19.448;2022-07-22T07:16:48;7.20;;;3.07;;
68273;SDS011;55104;47.356;19.448;2022-07-22T07:19:51;7.73;;;1.70;;
68273;SDS011;55104;47.356;19.448;2022-07-22T07:22:53;5.97;;;1.92;;
68273;SDS011;55104;47.356;19.448;2022-07-22T07:25:56;8.82;;;1.80;;
68273;SDS011;55104;47.356;19.448;2022-07-22T07:28:59;5.90;;;1.80;;
68273;SDS011;55104;47.356;19.448;2022-07-22T07:32:05;4.97;;;1.67;;
68273;SDS011;55104;47.356;19.448;2022-07-22T07:35:07;5.40;;;1.90;;
68273;SDS011;55104;47.356;19.448;2022-07-22T07:38:10;5.00;;;1.52;;
68273;SDS011;55104;47.356;19.448;2022-07-22T07:41:15;5.90;;;1.80;;
68273;SDS011;55104;47.356;19.448;2022-07-22T07:44:21;5.05;;;1.95;;
68273;SDS011;55104;47.356;19.448;2022-07-22T07:47:23;5.37;;;1.83;;
68273;SDS011;55104;47.356;19.448;2022-07-22T07:50:26;6.50;;;1.90;;
68273;SDS011;55104;47.356;19.448;2022-07-22T07:53:29;5.85;;;1.90;;
68273;SDS011;55104;47.356;19.448;2022-07-22T07:56:32;6.10;;;1.70;;
68273;SDS011;55104;47.356;19.448;2022-07-22T07:59:34;6.85;;;1.88;;
68273;SDS011;55104;47.356;19.448;2022-07-22T08:02:37;7.07;;;1.83;;
68273;SDS011;55104;47.356;19.448;2022-07-22T08:05:41;5.67;;;1.60;;
68273;SDS011;55104;47.356;19.448;2022-07-22T08:08:49;7.32;;;1.95;;
68273;SDS011;55104;47.356;19.448;2022-07-22T08:12:03;6.10;;;2.00;;
68273;SDS011;55104;47.356;19.448;2022-07-22T08:15:32;7.30;;;2.13;;
68273;SDS011;55104;47.356;19.448;2022-07-22T08:18:40;7.57;;;2.00;;
68273;SDS011;55104;47.356;19.448;2022-07-22T08:21:43;7.00;;;1.80;;
68273;SDS011;55104;47.356;19.448;2022-07-22T08:24:55;8.30;;;2.08;;
68273;SDS011;55104;47.356;19.448;2022-07-22T08:28:01;4.72;;;1.60;;
68273;SDS011;55104;47.356;19.448;2022-07-22T08:31:04;6.50;;;1.83;;
68273;SDS011;55104;47.356;19.448;2022-07-22T08:34:07;8.30;;;1.70;;
68273;SDS011;55104;47.356;19.448;2022-07-22T08:37:09;5.40;;;1.70;;
68273;SDS011;55104;47.356;19.448;2022-07-22T08:40:12;6.90;;;2.08;;
68273;SDS011;55104;47.356;19.448;2022-07-22T08:43:14;8.82;;;1.90;;
68273;SDS011;55104;47.356;19.448;2022-07-22T08:46:16;8.68;;;2.05;;
68273;SDS011;55104;47.356;19.448;2022-07-22T08:49:38;5.40;;;1.60;;
68273;SDS011;55104;47.356;19.448;2022-07-22T08:52:53;7.73;;;1.93;;
68273;SDS011;55104;47.356;19.448;2022-07-22T08:55:56;6.93;;;2.08;;
68273;SDS011;55104;47.356;19.448;2022-07-22T08:58:58;5.47;;;1.90;;
68273;SDS011;55104;47.356;19.448;2022-07-22T09:05:10;5.50;;;1.83;;
68273;SDS011;55104;47.356;19.448;2022-07-22T09:08:54;5.73;;;1.87;;
68273;SDS011;55104;47.356;19.448;2022-07-22T09:12:30;5.63;;;1.80;;
68273;SDS011;55104;47.356;19.448;2022-07-22T09:15:52;7.35;;;1.90;;
68273;SDS011;55104;47.356;19.448;2022-07-22T09:19:34;6.63;;;1.98;;
68273;SDS011;55104;47.356;19.448;2022-07-22T09:22:55;5.43;;;1.90;;
68273;SDS011;55104;47.356;19.448;2022-07-22T09:26:00;4.93;;;1.67;;
68273;SDS011;55104;47.356;19.448;2022-07-22T09:29:18;5.63;;;1.70;;
68273;SDS011;55104;47.356;19.448;2022-07-22T09:32:45;8.38;;;1.75;;
68273;SDS011;55104;47.356;19.448;2022-07-22T09:36:07;5.20;;;1.60;;
68273;SDS011;55104;47.356;19.448;2022-07-22T09:39:26;6.37;;;2.07;;
68273;SDS011;55104;47.356;19.448;2022-07-22T09:42:42;5.33;;;1.90;;
68273;SDS011;55104;47.356;19.448;2022-07-22T09:45:51;4.75;;;1.70;;
68273;SDS011;55104;47.356;19.448;2022-07-22T09:49:35;6.05;;;1.80;;
68273;SDS011;55104;47.356;19.448;2022-07-22T09:52:59;5.88;;;2.10;;
68273;SDS011;55104;47.356;19.448;2022-07-22T09:56:06;6.50;;;2.00;;
68273;SDS011;55104;47.356;19.448;2022-07-22T09:59:10;5.07;;;1.80;;
68273;SDS011;55104;47.356;19.448;2022-07-22T10:02:14;5.28;;;1.90;;
68273;SDS011;55104;47.356;19.448;2022-07-22T10:05:19;4.72;;;1.90;;
68273;SDS011;55104;47.356;19.448;2022-07-22T10:08:27;5.28;;;1.80;;
68273;SDS011;55104;47.356;19.448;2022-07-22T10:11:31;6.73;;;2.20;;
68273;SDS011;55104;47.356;19.448;2022-07-22T10:14:35;6.53;;;2.33;;
68273;SDS011;55104;47.356;19.448;2022-07-22T10:17:43;7.43;;;2.28;;
68273;SDS011;55104;47.356;19.448;2022-07-22T10:20:59;6.25;;;2.63;;
68273;SDS011;55104;47.356;19.448;2022-07-22T10:24:06;6.45;;;2.20;;
68273;SDS011;55104;47.356;19.448;2022-07-22T10:27:15;6.00;;;2.23;;
68273;SDS011;55104;47.356;19.448;2022-07-22T10:30:18;8.67;;;2.50;;
68273;SDS011;55104;47.356;19.448;2022-07-22T10:33:24;8.23;;;2.20;;
68273;SDS011;55104;47.356;19.448;2022-07-22T10:39:35;8.13;;;2.20;;
68273;SDS011;55104;47.356;19.448;2022-07-22T10:46:02;7.53;;;2.20;;
68273;SDS011;55104;47.356;19.448;2022-07-22T10:49:08;8.85;;;2.47;;
68273;SDS011;55104;47.356;19.448;2022-07-22T10:52:12;5.38;;;2.38;;
68273;SDS011;55104;47.356;19.448;2022-07-22T10:55:20;8.55;;;2.70;;
68273;SDS011;55104;47.356;19.448;2022-07-22T11:01:35;5.83;;;2.93;;
68273;SDS011;55104;47.356;19.448;2022-07-22T11:04:38;8.50;;;2.20;;
68273;SDS011;55104;47.356;19.448;2022-07-22T11:07:44;6.47;;;2.30;;
68273;SDS011;55104;47.356;19.448;2022-07-22T11:10:50;7.32;;;2.40;;
68273;SDS011;55104;47.356;19.448;2022-07-22T11:13:52;7.57;;;2.50;;
68273;SDS011;55104;47.356;19.448;2022-07-22T11:17:10;7.67;;;3.30;;
68273;SDS011;55104;47.356;19.448;2022-07-22T11:20:15;6.88;;;2.40;;
68273;SDS011;55104;47.356;19.448;2022-07-22T11:23:17;7.38;;;2.60;;
68273;SDS011;55104;47.356;19.448;2022-07-22T11:26:43;11.10;;;2.80;;
68273;SDS011;55104;47.356;19.448;2022-07-22T11:29:49;5.97;;;2.60;;
68273;SDS011;55104;47.356;19.448;2022-07-22T11:32:52;6.17;;;2.40;;
68273;SDS011;55104;47.356;19.448;2022-07-22T11:36:02;7.15;;;2.53;;
68273;SDS011;55104;47.356;19.448;2022-07-22T11:39:09;6.82;;;2.70;;
68273;SDS011;55104;47.356;19.448;2022-07-22T11:42:13;5.40;;;2.50;;
68273;SDS011;55104;47.356;19.448;2022-07-22T11:45:20;6.83;;;2.33;;
68273;SDS011;55104;47.356;19.448;2022-07-22T11:48:22;6.70;;;2.70;;
68273;SDS011;55104;47.356;19.448;2022-07-22T11:51:27;7.20;;;2.65;;
68273;SDS011;55104;47.356;19.448;2022-07-22T11:54:31;7.60;;;2.53;;
68273;SDS011;55104;47.356;19.448;2022-07-22T11:57:33;12.88;;;3.10;;
68273;SDS011;55104;47.356;19.448;2022-07-22T12:00:48;9.27;;;2.50;;
68273;SDS011;55104;47.356;19.448;2022-07-22T12:03:52;7.30;;;2.57;;
68273;SDS011;55104;47.356;19.448;2022-07-22T12:07:04;7.22;;;2.70;;
68273;SDS011;55104;47.356;19.448;2022-07-22T12:10:08;6.47;;;2.15;;
68273;SDS011;55104;47.356;19.448;2022-07-22T12:13:10;6.70;;;2.63;;
68273;SDS011;55104;47.356;19.448;2022-07-22T12:16:17;6.60;;;2.73;;
68273;SDS011;55104;47.356;19.448;2022-07-22T12:19:23;7.33;;;2.67;;
68273;SDS011;55104;47.356;19.448;2022-07-22T12:22:26;5.57;;;2.20;;
68273;SDS011;55104;47.356;19.448;2022-07-22T12:25:28;6.32;;;3.00;;
68273;SDS011;55104;47.356;19.448;2022-07-22T12:28:32;6.53;;;2.58;;
68273;SDS011;55104;47.356;19.448;2022-07-22T12:31:41;5.70;;;2.77;;
68273;SDS011;55104;47.356;19.448;2022-07-22T12:37:55;6.32;;;3.13;;
68273;SDS011;55104;47.356;19.448;2022-07-22T12:41:20;8.20;;;2.28;;
68273;SDS011;55104;47.356;19.448;2022-07-22T12:44:50;5.82;;;2.67;;
68273;SDS011;55104;47.356;19.448;2022-07-22T12:51:02;6.03;;;2.63;;
68273;SDS011;55104;47.356;19.448;2022-07-22T12:54:05;6.85;;;2.60;;
68273;SDS011;55104;47.356;19.448;2022-07-22T12:57:07;6.35;;;2.60;;
68273;SDS011;55104;47.356;19.448;2022-07-22T13:00:15;6.82;;;2.70;;
68273;SDS011;55104;47.356;19.448;2022-07-22T13:03:19;8.37;;;2.83;;
68273;SDS011;55104;47.356;19.448;2022-07-22T13:06:24;9.40;;;2.80;;
68273;SDS011;55104;47.356;19.448;2022-07-22T13:09:26;7.05;;;2.67;;
68273;SDS011;55104;47.356;19.448;2022-07-22T13:12:28;8.02;;;2.40;;
68273;SDS011;55104;47.356;19.448;2022-07-22T13:15:30;9.43;;;2.95;;
68273;SDS011;55104;47.356;19.448;2022-07-22T13:18:32;6.30;;;2.70;;
68273;SDS011;55104;47.356;19.448;2022-07-22T13:21:34;6.13;;;2.53;;
68273;SDS011;55104;47.356;19.448;2022-07-22T13:24:36;8.00;;;2.95;;
68273;SDS011;55104;47.356;19.448;2022-07-22T13:27:39;6.05;;;2.78;;
68273;SDS011;55104;47.356;19.448;2022-07-22T13:30:41;8.88;;;2.72;;
68273;SDS011;55104;47.356;19.448;2022-07-22T13:33:44;7.10;;;2.50;;
68273;SDS011;55104;47.356;19.448;2022-07-22T13:36:46;9.77;;;3.00;;
68273;SDS011;55104;47.356;19.448;2022-07-22T13:39:48;7.03;;;2.70;;
68273;SDS011;55104;47.356;19.448;2022-07-22T13:42:50;10.95;;;2.67;;
68273;SDS011;55104;47.356;19.448;2022-07-22T13:45:53;6.22;;;2.60;;
68273;SDS011;55104;47.356;19.448;2022-07-22T13:48:57;5.97;;;3.10;;
68273;SDS011;55104;47.356;19.448;2022-07-22T13:51:59;9.30;;;2.57;;
68273;SDS011;55104;47.356;19.448;2022-07-22T13:55:03;6.97;;;3.00;;
68273;SDS011;55104;47.356;19.448;2022-07-22T13:58:06;6.93;;;3.00;;
68273;SDS011;55104;47.356;19.448;2022-07-22T14:01:08;9.68;;;2.70;;
68273;SDS011;55104;47.356;19.448;2022-07-22T14:04:11;7.80;;;2.53;;
68273;SDS011;55104;47.356;19.448;2022-07-22T14:07:13;7.70;;;2.63;;
68273;SDS011;55104;47.356;19.448;2022-07-22T14:10:16;6.60;;;2.90;;
68273;SDS011;55104;47.356;19.448;2022-07-22T14:13:18;7.78;;;2.60;;
68273;SDS011;55104;47.356;19.448;2022-07-22T14:16:20;8.98;;;2.78;;
68273;SDS011;55104;47.356;19.448;2022-07-22T14:19:57;7.57;;;2.90;;
68273;SDS011;55104;47.356;19.448;2022-07-22T14:23:03;6.87;;;2.80;;
68273;SDS011;55104;47.356;19.448;2022-07-22T14:26:07;7.93;;;2.90;;
68273;SDS011;55104;47.356;19.448;2022-07-22T14:29:09;9.90;;;3.03;;
68273;SDS011;55104;47.356;19.448;2022-07-22T14:32:11;7.85;;;3.00;;
68273;SDS011;55104;47.356;19.448;2022-07-22T14:35:13;7.10;;;3.07;;
68273;SDS011;55104;47.356;19.448;2022-07-22T14:38:15;8.03;;;3.00;;
68273;SDS011;55104;47.356;19.448;2022-07-22T14:41:19;9.18;;;3.15;;
68273;SDS011;55104;47.356;19.448;2022-07-22T14:44:22;8.07;;;3.05;;
68273;SDS011;55104;47.356;19.448;2022-07-22T14:47:24;10.68;;;3.03;;
68273;SDS011;55104;47.356;19.448;2022-07-22T14:50:27;6.53;;;2.67;;
68273;SDS011;55104;47.356;19.448;2022-07-22T14:53:29;8.30;;;3.23;;
68273;SDS011;55104;47.356;19.448;2022-07-22T14:56:31;8.10;;;2.83;;
68273;SDS011;55104;47.356;19.448;2022-07-22T14:59:33;7.65;;;3.20;;
68273;SDS011;55104;47.356;19.448;2022-07-22T15:02:36;7.57;;;2.78;;
68273;SDS011;55104;47.356;19.448;2022-07-22T15:05:38;9.70;;;2.87;;
68273;SDS011;55104;47.356;19.448;2022-07-22T15:08:42;7.10;;;3.37;;
68273;SDS011;55104;47.356;19.448;2022-07-22T15:11:44;7.50;;;3.17;;
68273;SDS011;55104;47.356;19.448;2022-07-22T15:14:46;9.30;;;2.85;;
68273;SDS011;55104;47.356;19.448;2022-07-22T15:17:49;8.70;;;3.20;;
68273;SDS011;55104;47.356;19.448;2022-07-22T15:20:51;8.30;;;3.20;;
68273;SDS011;55104;47.356;19.448;2022-07-22T15:23:56;6.40;;;2.57;;
68273;SDS011;55104;47.356;19.448;2022-07-22T15:26:59;12.05;;;2.72;;
68273;SDS011;55104;47.356;19.448;2022-07-22T15:30:01;7.38;;;2.90;;
68273;SDS011;55104;47.356;19.448;2022-07-22T15:33:03;7.63;;;3.00;;
68273;SDS011;55104;47.356;19.448;2022-07-22T15:36:06;10.80;;;3.10;;
68273;SDS011;55104;47.356;19.448;2022-07-22T15:39:10;8.27;;;3.03;;
68273;SDS011;55104;47.356;19.448;2022-07-22T15:42:12;8.20;;;3.20;;
68273;SDS011;55104;47.356;19.448;2022-07-22T15:45:14;9.90;;;3.65;;
68273;SDS011;55104;47.356;19.448;2022-07-22T15:48:16;6.57;;;3.65;;
68273;SDS011;55104;47.356;19.448;2022-07-22T15:51:18;11.63;;;3.30;;
68273;SDS011;55104;47.356;19.448;2022-07-22T15:54:21;7.30;;;3.30;;
68273;SDS011;55104;47.356;19.448;2022-07-22T15:57:23;9.18;;;2.85;;
68273;SDS011;55104;47.356;19.448;2022-07-22T16:00:43;6.65;;;2.60;;
68273;SDS011;55104;47.356;19.448;2022-07-22T16:03:48;8.05;;;2.90;;
68273;SDS011;55104;47.356;19.448;2022-07-22T16:06:50;7.00;;;3.40;;
68273;SDS011;55104;47.356;19.448;2022-07-22T16:09:53;8.63;;;3.13;;
68273;SDS011;55104;47.356;19.448;2022-07-22T16:12:55;10.98;;;3.03;;
68273;SDS011;55104;47.356;19.448;2022-07-22T16:15:57;7.63;;;2.83;;
68273;SDS011;55104;47.356;19.448;2022-07-22T16:18:59;11.48;;;2.90;;
68273;SDS011;55104;47.356;19.448;2022-07-22T16:22:02;7.63;;;2.90;;
68273;SDS011;55104;47.356;19.448;2022-07-22T16:25:05;12.50;;;3.20;;
68273;SDS011;55104;47.356;19.448;2022-07-22T16:28:07;8.77;;;3.38;;
68273;SDS011;55104;47.356;19.448;2022-07-22T16:31:09;7.72;;;2.85;;
68273;SDS011;55104;47.356;19.448;2022-07-22T16:34:12;10.40;;;3.20;;
68273;SDS011;55104;47.356;19.448;2022-07-22T16:37:14;8.97;;;3.40;;
68273;SDS011;55104;47.356;19.448;2022-07-22T16:40:16;7.47;;;3.10;;
68273;SDS011;55104;47.356;19.448;2022-07-22T16:43:18;11.45;;;3.65;;
68273;SDS011;55104;47.356;19.448;2022-07-22T16:46:20;8.43;;;3.03;;
68273;SDS011;55104;47.356;19.448;2022-07-22T16:49:23;6.63;;;2.83;;
68273;SDS011;55104;47.356;19.448;2022-07-22T16:52:25;10.70;;;3.10;;
68273;SDS011;55104;47.356;19.448;2022-07-22T16:55:27;9.90;;;3.17;;
68273;SDS011;55104;47.356;19.448;2022-07-22T16:58:29;10.00;;;2.75;;
68273;SDS011;55104;47.356;19.448;2022-07-22T17:01:31;7.20;;;3.20;;
68273;SDS011;55104;47.356;19.448;2022-07-22T17:04:33;9.52;;;2.80;;
68273;SDS011;55104;47.356;19.448;2022-07-22T17:07:35;8.30;;;2.80;;
68273;SDS011;55104;47.356;19.448;2022-07-22T17:10:38;7.13;;;3.10;;
68273;SDS011;55104;47.356;19.448;2022-07-22T17:13:40;10.75;;;3.20;;
68273;SDS011;55104;47.356;19.448;2022-07-22T17:16:42;9.93;;;3.10;;
68273;SDS011;55104;47.356;19.448;2022-07-22T17:19:44;7.32;;;2.95;;
68273;SDS011;55104;47.356;19.448;2022-07-22T17:22:46;9.40;;;3.70;;
68273;SDS011;55104;47.356;19.448;2022-07-22T17:25:50;7.77;;;2.87;;
68273;SDS011;55104;47.356;19.448;2022-07-22T17:28:53;7.20;;;3.50;;
68273;SDS011;55104;47.356;19.448;2022-07-22T17:31:56;8.20;;;3.30;;
68273;SDS011;55104;47.356;19.448;2022-07-22T17:34:59;9.25;;;3.53;;
68273;SDS011;55104;47.356;19.448;2022-07-22T17:38:01;9.17;;;3.17;;
68273;SDS011;55104;47.356;19.448;2022-07-22T17:41:03;8.07;;;2.90;;
68273;SDS011;55104;47.356;19.448;2022-07-22T17:44:06;10.95;;;3.67;;
68273;SDS011;55104;47.356;19.448;2022-07-22T17:47:08;7.68;;;3.33;;
68273;SDS011;55104;47.356;19.448;2022-07-22T17:50:10;12.25;;;3.20;;
68273;SDS011;55104;47.356;19.448;2022-07-22T17:53:13;12.10;;;3.47;;
68273;SDS011;55104;47.356;19.448;2022-07-22T17:56:15;12.07;;;3.50;;
68273;SDS011;55104;47.356;19.448;2022-07-22T17:59:31;9.05;;;3.53;;
68273;SDS011;55104;47.356;19.448;2022-07-22T18:02:33;10.90;;;3.50;;
68273;SDS011;55104;47.356;19.448;2022-07-22T18:05:36;9.38;;;3.97;;
68273;SDS011;55104;47.356;19.448;2022-07-22T18:08:38;9.63;;;3.60;;
68273;SDS011;55104;47.356;19.448;2022-07-22T18:11:40;9.87;;;3.83;;
68273;SDS011;55104;47.356;19.448;2022-07-22T18:14:42;12.00;;;4.03;;
68273;SDS011;55104;47.356;19.448;2022-07-22T18:17:50;16.30;;;3.88;;
68273;SDS011;55104;47.356;19.448;2022-07-22T18:20:52;15.90;;;4.00;;
68273;SDS011;55104;47.356;19.448;2022-07-22T18:23:54;12.37;;;4.00;;
68273;SDS011;55104;47.356;19.448;2022-07-22T18:26:57;20.20;;;4.70;;
68273;SDS011;55104;47.356;19.448;2022-07-22T18:29:59;24.73;;;4.55;;
68273;SDS011;55104;47.356;19.448;2022-07-22T18:33:02;21.02;;;5.10;;
68273;SDS011;55104;47.356;19.448;2022-07-22T18:36:05;21.77;;;4.63;;
68273;SDS011;55104;47.356;19.448;2022-07-22T18:39:08;14.47;;;4.07;;